Time;durP1;ratioP1;P1;durP2;ratioP2;P2;SDS_P1;SDS_P2;PMS_P1;PMS_P2;Temp;Humidity;BMP_temperature;BMP_pressure;BME280_temperature;BME280_humidity;BME280_pressure;Samples;Min_cycle;Max_cycle;Signal;HPM_P1;HPM_P2
2023/08/09 00:00:40;;;;;;;4.93;3.03;;;;;;;13.42;100.00;101129.28;4999244;28;20019;-91
2023/08/09 00:03:06;;;;;;;4.13;3.00;;;;;;;13.37;100.00;101138.13;5005226;28;20049;-90
2023/08/09 00:05:31;;;;;;;3.23;2.93;;;;;;;13.38;100.00;101147.81;5012878;28;20030;-90
2023/08/09 00:07:57;;;;;;;5.37;3.50;;;;;;;13.27;100.00;101143.50;5018150;28;20014;-90
2023/08/09 00:10:22;;;;;;;3.90;3.20;;;;;;;13.24;100.00;101131.38;5014387;28;20011;-90
2023/08/09 00:12:48;;;;;;;4.40;2.97;;;;;;;13.36;100.00;101139.19;4976518;28;20034;-90
2023/08/09 00:15:15;;;;;;;5.50;3.65;;;;;;;13.34;100.00;101138.66;4955356;28;20031;-88
2023/08/09 00:17:40;;;;;;;4.10;3.47;;;;;;;13.39;100.00;101140.56;4974389;28;20031;-90
2023/08/09 00:20:08;;;;;;;3.45;3.00;;;;;;;13.39;100.00;101151.31;4993778;28;20049;-91
2023/08/09 00:22:33;;;;;;;5.15;3.78;;;;;;;13.43;100.00;101153.22;4992318;28;20022;-90
2023/08/09 00:24:59;;;;;;;6.77;3.73;;;;;;;13.47;100.00;101153.50;4981727;28;20046;-90
2023/08/09 00:27:25;;;;;;;5.63;3.75;;;;;;;13.43;100.00;101142.47;4977556;28;20025;-90
2023/08/09 00:29:50;;;;;;;4.43;3.73;;;;;;;13.57;100.00;101156.22;4979691;28;20386;-90
2023/08/09 00:32:15;;;;;;;4.77;4.10;;;;;;;13.52;100.00;101150.00;4975953;28;20031;-91
2023/08/09 00:34:41;;;;;;;4.33;3.97;;;;;;;13.57;100.00;101150.81;4998771;28;20122;-90
2023/08/09 00:37:06;;;;;;;6.72;4.13;;;;;;;13.43;100.00;101131.69;4996789;28;20058;-90
2023/08/09 00:39:32;;;;;;;6.37;4.57;;;;;;;13.52;100.00;101150.00;4973901;28;20565;-90
2023/08/09 00:41:57;;;;;;;4.23;3.83;;;;;;;13.47;100.00;101135.47;4961800;28;20034;-91
2023/08/09 00:44:23;;;;;;;4.43;4.03;;;;;;;13.37;100.00;101121.97;4989410;28;20041;-91
2023/08/09 00:46:49;;;;;;;5.77;4.33;;;;;;;13.45;100.00;101131.41;4993192;28;20080;-90
2023/08/09 00:49:15;;;;;;;4.88;4.38;;;;;;;13.33;100.00;101132.47;4993240;28;20058;-91
2023/08/09 00:51:41;;;;;;;8.13;4.40;;;;;;;13.44;100.00;101144.09;4985107;28;20466;-90
2023/08/09 00:54:06;;;;;;;6.72;4.45;;;;;;;13.47;100.00;101148.13;4988270;28;20035;-94
2023/08/09 00:56:32;;;;;;;6.37;4.17;;;;;;;13.44;100.00;101145.97;4993499;28;20486;-93
2023/08/09 00:58:57;;;;;;;4.90;4.40;;;;;;;13.44;100.00;101149.47;4992895;28;20034;-94
2023/08/09 01:01:22;;;;;;;4.70;4.30;;;;;;;13.35;100.00;101134.09;4975197;28;20038;-94
2023/08/09 01:03:48;;;;;;;4.60;4.00;;;;;;;13.39;100.00;101146.75;4983748;28;20289;-94
2023/08/09 01:06:51;;;;;;;4.28;3.67;;;;;;;13.46;100.00;101163.47;4976874;28;20671;-94
2023/08/09 01:09:33;;;;;;;5.53;4.27;;;;;;;13.43;100.00;101163.19;4958194;28;20117;-94
2023/08/09 01:12:07;;;;;;;6.32;4.32;;;;;;;13.35;100.00;101151.03;4973447;28;20034;-94
2023/08/09 01:14:36;;;;;;;5.57;4.22;;;;;;;13.35;100.00;101161.00;4991712;28;20026;-94
2023/08/09 01:17:01;;;;;;;5.18;4.30;;;;;;;13.34;100.00;101160.19;4991579;28;20032;-94
2023/08/09 01:19:48;;;;;;;4.93;3.95;;;;;;;13.30;100.00;101157.22;4992416;28;20042;-94
2023/08/09 01:22:26;;;;;;;4.70;4.30;;;;;;;13.14;100.00;101148.34;4991060;28;20129;-94
2023/08/09 01:24:52;;;;;;;5.47;4.60;;;;;;;13.09;100.00;101139.44;4988405;28;20354;-93
2023/08/09 01:27:17;;;;;;;6.45;4.63;;;;;;;13.13;100.00;101145.91;4971062;28;20149;-93
2023/08/09 01:29:43;;;;;;;5.60;4.60;;;;;;;13.18;100.00;101159.38;4984684;28;20027;-93
2023/08/09 01:32:08;;;;;;;8.20;4.43;;;;;;;13.17;100.00;101149.69;4987641;28;20049;-94
2023/08/09 01:34:36;;;;;;;5.30;4.20;;;;;;;13.18;100.00;101154.78;4957262;28;20132;-94
2023/08/09 01:37:21;;;;;;;6.43;4.57;;;;;;;13.22;100.00;101173.09;4958760;28;20023;-93
2023/08/09 01:39:49;;;;;;;4.50;3.72;;;;;;;13.09;100.00;101156.41;4980647;28;20031;-94
2023/08/09 01:42:15;;;;;;;7.25;4.30;;;;;;;13.22;100.00;101162.34;4979004;28;20065;-94
2023/08/09 01:44:40;;;;;;;5.03;3.97;;;;;;;12.99;100.00;101124.09;4977204;28;20035;-94
2023/08/09 01:47:07;;;;;;;8.25;4.30;;;;;;;13.10;100.00;101174.16;4971915;28;20033;-94
2023/08/09 01:49:33;;;;;;;5.90;4.35;;;;;;;12.99;100.00;101172.50;4996205;28;20019;-94
2023/08/09 01:51:58;;;;;;;4.40;4.00;;;;;;;12.86;100.00;101171.16;4979394;28;20113;-94
2023/08/09 01:54:24;;;;;;;7.18;3.63;;;;;;;12.67;100.00;101168.13;4980508;28;20022;-94
2023/08/09 01:56:50;;;;;;;3.77;3.47;;;;;;;12.62;100.00;101181.53;4988038;28;20027;-94
2023/08/09 01:59:15;;;;;;;4.40;3.57;;;;;;;12.43;100.00;101163.19;4980896;28;20308;-94
2023/08/09 02:01:41;;;;;;;3.80;3.40;;;;;;;12.42;100.00;101175.00;4988267;28;20050;-94
2023/08/09 02:04:09;;;;;;;4.97;3.67;;;;;;;12.33;100.00;101171.19;4992241;28;20018;-94
2023/08/09 02:06:35;;;;;;;4.60;3.50;;;;;;;12.26;100.00;101182.97;4981792;28;20093;-94
2023/08/09 02:09:04;;;;;;;5.60;3.60;;;;;;;12.12;100.00;101181.84;4972028;28;20555;-94
2023/08/09 02:11:29;;;;;;;3.75;3.35;;;;;;;12.02;100.00;101168.34;4957397;28;20022;-94
2023/08/09 02:13:55;;;;;;;6.23;3.47;;;;;;;12.05;100.00;101186.63;4991434;28;20031;-94
2023/08/09 02:16:20;;;;;;;3.80;3.35;;;;;;;11.95;100.00;101179.28;4985717;28;20030;-94
2023/08/09 02:18:45;;;;;;;8.40;3.80;;;;;;;12.01;100.00;101193.59;4990614;28;20061;-94
2023/08/09 02:21:11;;;;;;;7.27;3.77;;;;;;;11.92;100.00;101194.03;4973740;28;20035;-94
2023/08/09 02:23:38;;;;;;;5.07;3.70;;;;;;;11.87;100.00;101198.56;4990640;28;20485;-94
2023/08/09 02:26:05;;;;;;;6.72;3.60;;;;;;;11.79;100.00;101187.22;4990560;28;20023;-94
2023/08/09 02:28:30;;;;;;;5.00;3.78;;;;;;;11.81;100.00;101200.41;4991504;28;20030;-94
2023/08/09 02:30:56;;;;;;;4.30;3.90;;;;;;;11.74;100.00;101195.25;4990852;28;20080;-94
2023/08/09 02:33:22;;;;;;;4.25;3.85;;;;;;;11.68;100.00;101185.53;4982481;28;20065;-93
2023/08/09 02:35:53;;;;;;;4.47;3.80;;;;;;;11.66;100.00;101193.03;4967106;28;20106;-94
2023/08/09 02:38:19;;;;;;;3.70;3.40;;;;;;;11.57;100.00;101200.72;4952785;29;20027;-94
2023/08/09 02:40:44;;;;;;;6.07;3.70;;;;;;;11.51;100.00;101188.31;4952286;29;20302;-93
2023/08/09 02:43:09;;;;;;;7.70;3.87;;;;;;;11.54;100.00;101217.34;4984239;28;20133;-94
2023/08/09 02:45:35;;;;;;;4.37;3.97;;;;;;;11.48;100.00;101219.16;4990700;28;20030;-94
2023/08/09 02:48:01;;;;;;;6.35;3.80;;;;;;;11.47;100.00;101220.22;4975693;28;20037;-94
2023/08/09 02:50:26;;;;;;;7.27;3.80;;;;;;;11.49;100.00;101215.44;4989671;28;20101;-93
2023/08/09 02:52:51;;;;;;;7.07;4.03;;;;;;;11.48;100.00;101219.16;4989364;28;20027;-93
2023/08/09 02:55:17;;;;;;;6.13;4.00;;;;;;;11.43;100.00;101229.06;4990798;28;20029;-94
2023/08/09 02:57:43;;;;;;;4.87;4.10;;;;;;;11.36;100.00;101227.38;4988860;28;20574;-93
2023/08/09 03:00:09;;;;;;;4.88;4.05;;;;;;;11.35;100.00;101225.75;4990512;28;20118;-94
2023/08/09 03:02:34;;;;;;;6.05;4.75;;;;;;;11.39;100.00;101223.38;4984194;28;20081;-94
2023/08/09 03:05:01;;;;;;;4.73;4.10;;;;;;;11.34;100.00;101224.13;4969095;28;20030;-94
2023/08/09 03:07:27;;;;;;;8.52;5.22;;;;;;;11.28;100.00;101222.47;4974143;28;20026;-94
2023/08/09 03:09:53;;;;;;;6.70;4.78;;;;;;;11.26;100.00;101226.44;4996868;28;20019;-94
2023/08/09 03:12:19;;;;;;;5.00;4.03;;;;;;;11.14;100.00;101218.53;4953069;28;20023;-94
2023/08/09 03:14:44;;;;;;;5.70;4.50;;;;;;;11.14;100.00;101229.28;4977626;28;20284;-94
2023/08/09 03:17:11;;;;;;;7.27;4.53;;;;;;;11.17;100.00;101239.50;4987510;28;20122;-94
2023/08/09 03:19:37;;;;;;;8.52;4.88;;;;;;;11.09;100.00;101245.34;4971831;28;20055;-93
2023/08/09 03:22:02;;;;;;;6.17;4.67;;;;;;;10.95;100.00;101220.75;4976180;28;20118;-94
2023/08/09 03:24:27;;;;;;;6.13;4.67;;;;;;;11.06;100.00;101238.56;4990767;28;20398;-93
2023/08/09 03:26:53;;;;;;;11.20;4.90;;;;;;;11.03;100.00;101229.16;4985065;28;20038;-94
2023/08/09 03:29:18;;;;;;;7.30;4.65;;;;;;;11.08;100.00;101230.28;4993932;28;20026;-95
2023/08/09 03:31:43;;;;;;;5.77;4.83;;;;;;;11.01;100.00;101235.84;4969062;28;20037;-94
2023/08/09 03:34:08;;;;;;;6.53;4.63;;;;;;;11.02;100.00;101230.22;4994339;28;20064;-93
2023/08/09 03:36:34;;;;;;;7.17;4.83;;;;;;;11.11;100.00;101244.00;4993948;28;20073;-94
2023/08/09 03:39:00;;;;;;;7.82;5.30;;;;;;;11.04;100.00;101246.88;4992065;28;20754;-94
2023/08/09 03:41:25;;;;;;;7.30;5.60;;;;;;;11.00;100.00;101255.69;4992386;28;20045;-94
2023/08/09 03:43:51;;;;;;;8.23;5.20;;;;;;;11.00;100.00;101267.22;4972027;28;20059;-94
2023/08/09 03:46:16;;;;;;;12.73;5.70;;;;;;;10.97;100.00;101262.34;4975622;28;20113;-94
2023/08/09 03:48:41;;;;;;;8.10;5.40;;;;;;;10.96;100.00;101271.44;4993861;28;20317;-93
2023/08/09 03:51:07;;;;;;;6.70;5.43;;;;;;;10.95;100.00;101274.38;4994141;28;20023;-94
2023/08/09 03:53:32;;;;;;;10.83;5.50;;;;;;;10.88;100.00;101271.91;4992315;28;20454;-94
2023/08/09 03:55:57;;;;;;;9.03;5.83;;;;;;;10.88;100.00;101279.94;4991820;28;20052;-93
2023/08/09 03:58:23;;;;;;;9.32;5.60;;;;;;;10.79;100.00;101270.69;4981742;28;20031;-94
2023/08/09 04:00:48;;;;;;;7.50;5.40;;;;;;;10.82;100.00;101271.03;4974967;28;20031;-94
2023/08/09 04:03:13;;;;;;;8.63;5.87;;;;;;;10.89;100.00;101286.94;4988424;28;20114;-93
2023/08/09 04:05:39;;;;;;;8.97;5.80;;;;;;;10.93;100.00;101288.06;4993428;28;20031;-95
2023/08/09 04:08:06;;;;;;;9.97;6.07;;;;;;;10.93;100.00;101295.28;4993306;28;20061;-95
2023/08/09 04:10:32;;;;;;;12.05;6.22;;;;;;;10.83;100.00;101288.72;4994118;28;20405;-93
2023/08/09 04:12:58;;;;;;;7.65;5.85;;;;;;;10.81;100.00;101273.94;4988495;28;20032;-94
2023/08/09 04:15:23;;;;;;;9.73;5.60;;;;;;;10.85;100.00;101283.09;4974149;28;20116;-93
2023/08/09 04:17:49;;;;;;;10.32;6.68;;;;;;;10.83;100.00;101296.78;4973537;28;20385;-94
2023/08/09 04:20:16;;;;;;;10.87;6.37;;;;;;;10.86;100.00;101298.13;4972206;28;20398;-95
2023/08/09 04:22:41;;;;;;;10.63;7.50;;;;;;;10.84;100.00;101284.16;4975236;28;20035;-94
2023/08/09 04:25:10;;;;;;;11.47;6.77;;;;;;;10.95;100.00;101307.38;4977431;28;20051;-95
2023/08/09 04:27:36;;;;;;;10.32;7.20;;;;;;;10.89;100.00;101293.09;4974108;28;20078;-95
2023/08/09 04:30:03;;;;;;;11.57;7.00;;;;;;;10.90;100.00;101292.03;5002720;28;20011;-96
2023/08/09 04:32:29;;;;;;;12.80;7.45;;;;;;;11.08;100.00;101298.13;4977509;28;20592;-93
2023/08/09 04:34:54;;;;;;;13.77;8.77;;;;;;;11.12;100.00;101301.16;4978834;28;20053;-96
2023/08/09 04:37:20;;;;;;;13.43;8.20;;;;;;;11.10;100.00;101300.59;4992230;28;20042;-89
2023/08/09 04:39:45;;;;;;;15.70;7.63;;;;;;;11.10;100.00;101290.66;4973391;28;20041;-94
2023/08/09 04:42:10;;;;;;;17.50;7.97;;;;;;;11.08;100.00;101284.72;4987452;28;20044;-95
2023/08/09 04:44:36;;;;;;;14.33;8.13;;;;;;;11.12;100.00;101301.16;4983268;28;20035;-93
2023/08/09 04:47:03;;;;;;;13.27;7.88;;;;;;;11.13;100.00;101302.78;4974116;28;20039;-93
2023/08/09 04:49:28;;;;;;;12.43;8.03;;;;;;;11.15;100.00;101312.19;4973738;28;20049;-93
2023/08/09 04:51:54;;;;;;;12.33;8.00;;;;;;;11.30;100.00;101316.94;4975172;28;20298;-93
2023/08/09 04:54:20;;;;;;;13.13;8.57;;;;;;;11.28;100.00;101321.75;4992731;28;20040;-93
2023/08/09 04:56:46;;;;;;;15.23;9.43;;;;;;;11.42;100.00;101315.97;4970967;28;20037;-88
2023/08/09 04:59:11;;;;;;;14.70;9.10;;;;;;;11.52;100.00;101319.59;4972900;28;20117;-89
2023/08/09 05:01:36;;;;;;;14.77;9.90;;;;;;;11.62;100.00;101318.06;4970403;28;20022;-87
2023/08/09 05:04:02;;;;;;;16.97;10.70;;;;;;;11.70;100.00;101327.53;4978474;28;20077;-87
2023/08/09 05:06:27;;;;;;;16.00;9.97;;;;;;;11.79;100.00;101331.41;4972242;28;20077;-87
2023/08/09 05:08:53;;;;;;;20.48;11.02;;;;;;;11.90;100.00;101329.63;4972792;28;20395;-87
2023/08/09 05:11:18;;;;;;;18.67;11.60;;;;;;;11.95;100.00;101322.41;4962085;28;20510;-87
2023/08/09 05:13:45;;;;;;;21.57;11.50;;;;;;;12.06;100.00;101333.28;4971290;28;20454;-87
2023/08/09 05:16:10;;;;;;;21.80;12.43;;;;;;;12.12;100.00;101329.56;4974199;28;20042;-87
2023/08/09 05:18:35;;;;;;;22.17;12.60;;;;;;;12.23;100.00;101336.63;4986232;28;20034;-85
2023/08/09 05:21:01;;;;;;;24.60;15.13;;;;;;;12.42;100.00;101338.94;4978450;28;20019;-87
2023/08/09 05:23:26;;;;;;;28.00;16.43;;;;;;;12.92;100.00;101342.22;4986307;28;20439;-87
2023/08/09 05:25:51;;;;;;;33.97;18.73;;;;;;;13.47;100.00;101340.06;4991038;28;20030;-87
2023/08/09 05:28:17;;;;;;;30.83;19.50;;;;;;;13.92;100.00;101339.59;4990461;28;20030;-88
2023/08/09 05:30:42;;;;;;;30.90;19.10;;;;;;;14.30;100.00;101352.84;4989184;28;20509;-88
2023/08/09 05:33:07;;;;;;;28.63;18.60;;;;;;;14.54;100.00;101358.47;4984082;28;20026;-90
2023/08/09 05:35:33;;;;;;;23.27;16.93;;;;;;;14.52;100.00;101356.03;4987015;28;20125;-90
2023/08/09 05:37:58;;;;;;;31.33;20.30;;;;;;;14.52;100.00;101355.25;4982004;28;20031;-90
2023/08/09 05:40:23;;;;;;;32.13;19.73;;;;;;;14.70;100.00;101361.97;4973020;28;20033;-89
2023/08/09 05:42:49;;;;;;;35.93;20.43;;;;;;;14.68;100.00;101373.06;4978559;28;20371;-88
2023/08/09 05:45:14;;;;;;;31.67;18.50;;;;;;;14.60;100.00;101356.59;4974344;28;20070;-90
2023/08/09 05:47:40;;;;;;;31.37;18.03;;;;;;;14.53;100.00;101368.44;4971638;28;20046;-90
2023/08/09 05:50:06;;;;;;;29.92;16.52;;;;;;;14.35;100.00;101361.72;4975959;28;20023;-90
2023/08/09 05:52:31;;;;;;;27.50;16.02;;;;;;;14.32;100.00;101361.47;4978656;28;20026;-93
2023/08/09 05:54:57;;;;;;;26.50;15.13;;;;;;;14.27;100.00;101370.34;4983498;28;20157;-89
2023/08/09 05:57:22;;;;;;;24.00;14.83;;;;;;;14.13;100.00;101367.41;4972438;28;20069;-89
2023/08/09 05:59:47;;;;;;;25.38;15.00;;;;;;;14.15;100.00;101373.31;4970504;28;20131;-89
2023/08/09 06:02:13;;;;;;;27.57;16.83;;;;;;;14.12;100.00;101373.84;4973959;28;20045;-89
2023/08/09 06:04:38;;;;;;;30.80;16.93;;;;;;;13.99;100.00;101353.63;4988884;28;20026;-91
2023/08/09 06:07:03;;;;;;;29.10;17.00;;;;;;;14.23;100.00;101370.09;4989315;28;20172;-90
2023/08/09 06:09:29;;;;;;;30.57;18.33;;;;;;;14.23;100.00;101380.06;4985661;28;20019;-91
2023/08/09 06:11:55;;;;;;;30.02;18.73;;;;;;;14.23;100.00;101382.75;4963818;28;20618;-89
2023/08/09 06:14:20;;;;;;;34.03;18.70;;;;;;;14.27;100.00;101388.41;4985055;28;20042;-90
2023/08/09 06:16:47;;;;;;;31.45;18.75;;;;;;;14.20;100.00;101391.38;4990513;28;20034;-90
2023/08/09 06:19:13;;;;;;;35.80;20.17;;;;;;;14.11;100.00;101380.31;4987782;28;20022;-90
2023/08/09 06:21:38;;;;;;;33.70;19.77;;;;;;;14.11;100.00;101398.38;4970851;28;20023;-91
2023/08/09 06:24:05;;;;;;;37.17;21.10;;;;;;;14.00;100.00;101411.84;4971039;28;20077;-89
2023/08/09 06:26:32;;;;;;;28.97;18.53;;;;;;;13.96;100.00;101418.03;4969941;28;20030;-90
2023/08/09 06:28:57;;;;;;;30.17;18.67;;;;;;;13.85;100.00;101414.50;4967167;28;20429;-90
2023/08/09 06:31:22;;;;;;;37.00;20.48;;;;;;;13.88;100.00;101424.72;4967289;28;20647;-89
2023/08/09 06:33:48;;;;;;;40.83;21.37;;;;;;;13.96;100.00;101407.25;4966452;28;20023;-88
2023/08/09 06:36:14;;;;;;;44.75;22.65;;;;;;;14.24;100.00;101425.59;4968880;28;20038;-87
2023/08/09 06:38:39;;;;;;;55.33;27.17;;;;;;;14.44;100.00;101409.69;4971554;28;20395;-88
2023/08/09 06:41:05;;;;;;;55.33;28.23;;;;;;;14.53;100.00;101424.28;4969487;28;20023;-88
2023/08/09 06:43:30;;;;;;;49.73;26.67;;;;;;;14.61;100.00;101418.31;4961472;28;20290;-89
2023/08/09 06:45:58;;;;;;;43.73;23.60;;;;;;;14.59;100.00;101427.78;4968690;28;20074;-90
2023/08/09 06:48:24;;;;;;;39.53;22.42;;;;;;;14.73;100.00;101425.38;4971609;28;20081;-90
2023/08/09 06:50:49;;;;;;;37.37;22.23;;;;;;;14.75;100.00;101434.00;4971874;28;20686;-90
2023/08/09 06:53:14;;;;;;;41.30;21.90;;;;;;;15.06;100.00;101445.59;4972148;28;20035;-91
2023/08/09 06:55:40;;;;;;;43.00;23.70;;;;;;;15.02;100.00;101440.97;4953856;28;20027;-90
2023/08/09 06:58:05;;;;;;;34.43;21.10;;;;;;;15.03;100.00;101435.31;4983913;28;20027;-90
2023/08/09 07:00:30;;;;;;;34.03;20.20;;;;;;;15.35;100.00;101444.13;4986868;28;20031;-91
2023/08/09 07:02:56;;;;;;;30.20;19.57;;;;;;;15.55;100.00;101451.38;4954243;28;21047;-89
2023/08/09 07:05:21;;;;;;;27.63;18.30;;;;;;;15.38;100.00;101440.88;4974438;28;20376;-91
2023/08/09 07:07:52;;;;;;;28.73;19.15;;;;;;;15.65;100.00;101454.03;4971277;28;20049;-89
2023/08/09 07:10:18;;;;;;;28.53;18.77;;;;;;;15.86;100.00;101460.19;4986181;28;20015;-90
2023/08/09 07:12:43;;;;;;;29.10;19.30;;;;;;;16.14;100.00;101465.97;4984359;28;20304;-91
2023/08/09 07:15:09;;;;;;;26.50;18.42;;;;;;;16.43;100.00;101459.81;4974921;28;20537;-91
2023/08/09 07:17:35;;;;;;;29.87;18.73;;;;;;;16.64;100.00;101465.88;5005121;28;20085;-92
2023/08/09 07:20:02;;;;;;;23.67;17.17;;;;;;;16.55;100.00;101464.06;4972846;28;20298;-92
2023/08/09 07:22:28;;;;;;;23.45;16.40;;;;;;;16.55;100.00;101464.06;4986905;28;20098;-92
2023/08/09 07:24:53;;;;;;;23.80;17.00;;;;;;;16.68;100.00;101466.13;4979053;28;20122;-93
2023/08/09 07:27:18;;;;;;;25.40;18.10;;;;;;;16.81;100.00;101460.03;4975942;28;20490;-93
2023/08/09 07:29:44;;;;;;;24.10;17.60;;;;;;;16.97;100.00;101473.47;4977871;28;20471;-92
2023/08/09 07:32:09;;;;;;;22.37;16.23;;;;;;;16.88;100.00;101467.03;4985273;28;20038;-89
2023/08/09 07:34:35;;;;;;;22.13;16.42;;;;;;;16.96;100.00;101469.16;4984497;28;20073;-89
2023/08/09 07:37:00;;;;;;;23.73;17.27;;;;;;;16.83;100.00;101458.94;4957021;28;20027;-89
2023/08/09 07:39:25;;;;;;;22.97;16.77;;;;;;;17.03;100.00;101485.84;4972085;28;20637;-89
2023/08/09 07:41:51;;;;;;;21.23;15.73;;;;;;;16.99;100.00;101481.31;4985051;28;20041;-89
2023/08/09 07:44:16;;;;;;;22.10;16.17;;;;;;;17.02;100.00;101478.03;4983848;28;20027;-89
2023/08/09 07:46:42;;;;;;;21.80;15.73;;;;;;;17.25;100.00;101487.28;4972423;28;20066;-88
2023/08/09 07:49:07;;;;;;;21.03;15.77;;;;;;;17.45;100.00;101493.56;4956970;28;20081;-89
2023/08/09 07:51:32;;;;;;;19.67;14.37;;;;;;;17.58;100.00;101498.28;4972366;28;20031;-88
2023/08/09 07:53:58;;;;;;;16.50;13.40;;;;;;;17.51;100.00;101481.59;4973291;28;20497;-89
2023/08/09 07:56:24;;;;;;;18.47;13.40;;;;;;;17.81;100.00;101493.13;4947375;28;20101;-88
2023/08/09 07:58:50;;;;;;;18.50;13.63;;;;;;;18.04;100.00;101505.06;4955232;29;20061;-89
2023/08/09 08:01:15;;;;;;;17.17;13.23;;;;;;;17.97;100.00;101502.69;4957078;28;20554;-88
2023/08/09 08:03:41;;;;;;;16.07;12.27;;;;;;;17.88;100.00;101507.16;4977569;28;20054;-88
2023/08/09 08:06:06;;;;;;;16.30;12.83;;;;;;;17.74;100.00;101512.47;4970897;28;20034;-89
2023/08/09 08:08:31;;;;;;;14.48;11.50;;;;;;;17.73;100.00;101516.28;4974098;28;20086;-89
2023/08/09 08:10:57;;;;;;;16.90;13.27;;;;;;;17.95;100.00;101509.50;4976582;28;20449;-88
2023/08/09 08:13:23;;;;;;;16.73;12.10;;;;;;;17.98;100.00;101517.09;4973938;28;20026;-88
2023/08/09 08:15:50;;;;;;;13.03;10.43;;;;;;;18.09;100.00;101526.69;4974346;28;20129;-89
2023/08/09 08:18:15;;;;;;;14.18;10.68;;;;;;;18.36;100.00;101513.56;4974479;28;20385;-88
2023/08/09 08:20:41;;;;;;;12.63;9.77;;;;;;;18.55;100.00;101529.84;4975972;28;20022;-89
2023/08/09 08:23:06;;;;;;;11.27;10.00;;;;;;;18.52;100.00;101525.81;4979324;28;20034;-89
2023/08/09 08:25:32;;;;;;;13.20;9.83;;;;;;;18.71;100.00;101525.81;4965650;28;20340;-89
2023/08/09 08:27:57;;;;;;;10.20;9.13;;;;;;;18.79;100.00;101524.31;4974060;28;20062;-89
2023/08/09 08:30:22;;;;;;;12.70;8.95;;;;;;;18.95;100.00;101538.44;4974782;28;20139;-88
2023/08/09 08:32:49;;;;;;;11.00;8.27;;;;;;;19.04;100.00;101542.13;4964981;28;20069;-89
2023/08/09 08:35:20;;;;;;;9.40;8.35;;;;;;;19.24;100.00;101539.31;4970976;28;20023;-88
2023/08/09 08:37:46;;;;;;;10.60;8.33;;;;;;;19.41;100.00;101544.19;4983129;28;21423;-88
2023/08/09 08:40:17;;;;;;;9.93;8.03;;;;;;;19.55;100.00;101531.41;4972575;28;20267;-88
2023/08/09 08:42:47;;;;;;;11.57;7.78;;;;;;;19.64;100.00;101526.88;4954371;28;20027;-88
2023/08/09 08:45:15;;;;;;;8.00;7.07;;;;;;;19.54;100.00;101529.81;4972297;28;20030;-88
2023/08/09 08:47:42;;;;;;;8.73;7.47;;;;;;;19.45;100.00;101551.44;4973424;28;20078;-91
2023/08/09 08:50:09;;;;;;;7.43;6.68;;;;;;;19.46;100.00;101549.50;4972652;28;20434;-85
2023/08/09 08:52:40;;;;;;;7.03;5.70;;;;;;;19.60;100.00;101557.69;4992724;28;20030;-85
2023/08/09 08:55:08;;;;;;;13.27;6.20;;;;;;;19.81;100.00;101561.63;4978368;28;20081;-88
2023/08/09 08:57:35;;;;;;;7.82;6.40;;;;;;;19.94;100.00;101560.03;4969678;28;20110;-87
2023/08/09 09:00:07;;;;;;;7.50;6.77;;;;;;;20.14;100.00;101549.81;4971190;28;20126;-86
2023/08/09 09:02:33;;;;;;;10.43;6.13;;;;;;;20.37;100.00;101553.38;4985468;28;20034;-87
2023/08/09 09:04:58;;;;;;;5.40;4.90;;;;;;;20.52;100.00;101567.75;4971684;28;20027;-87
2023/08/09 09:07:25;;;;;;;9.25;5.82;;;;;;;20.42;100.00;101561.44;4954421;28;20077;-87
2023/08/09 09:09:58;;;;;;;6.17;5.57;;;;;;;20.54;100.00;101574.50;4971710;28;20031;-87
2023/08/09 09:12:25;;;;;;;6.43;5.00;;;;;;;20.64;100.00;101565.28;4983004;28;20838;-86
2023/08/09 09:14:51;;;;;;;7.05;4.60;;;;;;;20.65;100.00;101568.81;4972118;28;20081;-87
2023/08/09 09:17:19;;;;;;;6.88;5.00;;;;;;;20.65;100.00;101572.34;4971909;28;20105;-87
2023/08/09 09:19:45;;;;;;;7.30;4.40;;;;;;;20.55;100.00;101575.31;4972119;28;20566;-88
2023/08/09 09:22:26;;;;;;;6.47;5.63;;;;;;;20.69;100.00;101580.72;4985686;28;20482;-88
2023/08/09 09:24:51;;;;;;;8.23;5.15;;;;;;;20.66;100.00;101571.22;4990596;28;20076;-88
2023/08/09 09:27:17;;;;;;;6.40;5.13;;;;;;;20.80;100.00;101575.88;4982046;28;20498;-88
2023/08/09 09:29:42;;;;;;;6.15;5.55;;;;;;;20.97;100.00;101584.16;4972585;28;20034;-88
2023/08/09 09:32:08;;;;;;;8.83;5.30;;;;;;;21.23;100.00;101591.66;4968062;28;20034;-88
2023/08/09 09:34:35;;;;;;;7.10;5.18;;;;;;;21.43;100.00;101593.06;4970176;28;20107;-88
2023/08/09 09:37:01;;;;;;;6.82;4.93;;;;;;;21.69;100.00;101589.66;4970726;28;20598;-87
2023/08/09 09:39:28;;;;;;;5.93;4.90;;;;;;;21.56;100.00;101585.88;4971718;28;20109;-87
2023/08/09 09:41:53;;;;;;;7.18;4.60;;;;;;;21.43;100.00;101595.78;4982973;28;20039;-88
2023/08/09 09:44:23;;;;;;;6.57;4.73;;;;;;;21.40;100.00;101592.88;4991290;28;20030;-87
2023/08/09 09:46:59;;;;;;;7.87;5.00;;;;;;;21.28;100.00;101590.72;4991515;28;20276;-88
2023/08/09 09:49:24;;;;;;;7.85;4.78;;;;;;;21.33;100.00;101585.97;4981201;28;20045;-87
2023/08/09 09:51:51;;;;;;;5.40;4.87;;;;;;;21.03;100.00;101574.72;4989959;28;20058;-87
2023/08/09 09:54:16;;;;;;;7.10;4.87;;;;;;;21.03;100.00;101579.38;4991627;28;20436;-88
2023/08/09 09:56:42;;;;;;;6.25;5.18;;;;;;;21.17;100.00;101584.75;4978076;28;20434;-87
2023/08/09 09:59:07;;;;;;;6.57;4.70;;;;;;;21.37;100.00;101572.50;4997594;28;20069;-87
2023/08/09 10:01:39;;;;;;;6.75;5.20;;;;;;;21.67;99.89;101586.44;4981892;28;20121;-87
2023/08/09 10:04:06;;;;;;;6.80;5.30;;;;;;;22.05;99.77;101590.59;4973786;28;20035;-88
2023/08/09 10:06:36;;;;;;;5.97;5.20;;;;;;;22.43;97.59;101590.03;4971700;28;20286;-87
2023/08/09 10:09:04;;;;;;;7.82;5.90;;;;;;;23.01;96.78;101595.25;4966658;28;20051;-87
2023/08/09 10:11:33;;;;;;;7.80;6.05;;;;;;;23.08;94.12;101576.44;4967421;28;20026;-87
2023/08/09 10:14:02;;;;;;;7.22;6.03;;;;;;;23.27;90.69;101595.25;4990682;28;20485;-87
2023/08/09 10:16:30;;;;;;;6.70;5.68;;;;;;;23.24;84.24;101584.16;4983088;28;20471;-87
2023/08/09 10:19:02;;;;;;;5.35;4.85;;;;;;;23.61;94.18;101581.75;4971024;28;20041;-87
2023/08/09 10:21:28;;;;;;;7.15;5.28;;;;;;;23.84;92.57;101576.03;4973633;28;20692;-87
2023/08/09 10:23:54;;;;;;;7.47;6.17;;;;;;;23.68;83.47;101573.84;4989690;28;20030;-86
2023/08/09 10:26:27;;;;;;;6.55;5.85;;;;;;;23.52;85.35;101581.81;4990579;28;20038;-87
2023/08/09 10:29:01;;;;;;;6.53;5.03;;;;;;;23.76;89.69;101580.41;4990534;28;20070;-88
2023/08/09 10:31:48;;;;;;;9.85;5.78;;;;;;;23.80;90.53;101586.84;4978953;28;20034;-87
2023/08/09 10:34:20;;;;;;;8.43;5.10;;;;;;;23.84;80.03;101584.22;4990665;28;20652;-87
2023/08/09 10:36:50;;;;;;;7.55;4.55;;;;;;;24.19;82.41;101592.25;4989931;28;20041;-87
2023/08/09 10:39:19;;;;;;;7.57;4.70;;;;;;;24.28;80.20;101590.28;4990980;28;20049;-87
2023/08/09 10:41:58;;;;;;;5.57;4.40;;;;;;;24.46;79.29;101592.88;4990078;28;20093;-85
2023/08/09 10:44:40;;;;;;;7.68;3.90;;;;;;;24.26;83.50;101587.06;4956784;28;20617;-85
2023/08/09 10:47:30;;;;;;;4.20;3.80;;;;;;;24.53;85.57;101595.88;4950725;28;20042;-85
2023/08/09 10:49:59;;;;;;;6.20;4.20;;;;;;;24.58;72.77;101590.19;4961207;28;20129;-85
2023/08/09 10:52:31;;;;;;;5.65;4.30;;;;;;;24.61;76.64;101599.66;4982633;28;20014;-85
2023/08/09 10:55:18;;;;;;;5.32;4.32;;;;;;;24.73;67.35;101591.56;4990295;28;20474;-85
2023/08/09 10:57:45;;;;;;;8.18;5.18;;;;;;;24.53;68.51;101595.88;4989587;28;20057;-85
2023/08/09 11:00:14;;;;;;;5.97;4.73;;;;;;;24.44;67.93;101593.19;4989984;28;20042;-85
2023/08/09 11:02:48;;;;;;;5.85;3.85;;;;;;;24.83;77.05;101584.84;4976050;28;20100;-87
2023/08/09 11:05:13;;;;;;;4.90;3.80;;;;;;;24.90;73.06;101601.53;4970836;28;20475;-85
2023/08/09 11:07:56;;;;;;;5.35;4.43;;;;;;;24.97;70.03;101600.97;4970425;28;20033;-85
2023/08/09 11:10:30;;;;;;;6.05;3.80;;;;;;;25.39;69.69;101598.09;4973048;28;20042;-86